Aviation Digital Data Service (ADDS)

Output produced by METARs form (0130 UTC 19 October 2017)
found at http://aviationweather.gov/adds/metars/
 
KGSP 182330Z 1900/1924 VRB03KT P6SM FEW250